createdAt,value
2018-05-15T00:07:28.448Z,16.8
2018-05-15T00:24:12.620Z,16.5
2018-05-15T00:40:56.255Z,16.2
2018-05-15T00:57:39.792Z,15.8
2018-05-15T01:14:23.299Z,15.8
2018-05-15T01:31:06.666Z,15.5
2018-05-15T01:47:50.015Z,15.5
2018-05-15T02:04:33.100Z,15.2
2018-05-15T02:21:15.843Z,15.2
2018-05-15T02:37:58.227Z,14.9
2018-05-15T02:54:40.401Z,14.9
2018-05-15T03:11:22.403Z,14.2
2018-05-15T03:28:04.057Z,14.2
2018-05-15T03:44:45.553Z,13.9
2018-05-15T04:01:26.963Z,13.9
2018-05-15T04:18:08.282Z,13.9
2018-05-15T04:34:49.800Z,13.9
2018-05-15T04:51:31.617Z,14.2
2018-05-15T05:08:13.799Z,14.2
2018-05-15T05:21:35.723Z,14.9
2018-05-15T05:38:18.764Z,15.2
2018-05-15T05:48:20.296Z,15.8
2018-05-15T06:01:43.176Z,16.5
2018-05-15T06:15:06.417Z,17.1
2018-05-15T06:31:50.987Z,17.4
2018-05-15T06:45:14.896Z,18.1
2018-05-15T07:02:00.163Z,18.4
2018-05-15T07:12:03.549Z,19.0
2018-05-15T07:28:49.682Z,19.4
2018-05-15T07:45:36.096Z,19.7
2018-05-15T08:05:44.520Z,20.6
2018-05-15T08:15:49.380Z,21.3
2018-05-15T08:19:10.713Z,21.3
2018-05-15T08:32:37.187Z,21.3
2018-05-15T08:49:25.584Z,21.6
2018-05-15T09:06:15.722Z,22.2
2018-05-15T09:12:58.035Z,22.2
2018-05-15T09:29:46.880Z,22.6
2018-05-15T09:46:36.930Z,22.2
2018-05-15T10:03:25.421Z,22.6
2018-05-15T10:20:15.062Z,22.9
2018-05-15T10:33:43.003Z,23.2
2018-05-15T10:43:49.069Z,22.9
2018-05-15T10:50:32.906Z,22.9
2018-05-15T11:00:38.906Z,23.5
2018-05-15T11:17:29.005Z,23.2
2018-05-15T11:34:19.005Z,23.2
2018-05-15T11:47:47.452Z,23.2
2018-05-15T12:04:36.800Z,22.9
2018-05-15T12:18:04.709Z,23.5
2018-05-15T12:31:33.334Z,23.8
2018-05-15T12:34:55.274Z,23.8
2018-05-15T12:38:17.387Z,23.8
2018-05-15T12:55:07.715Z,23.5
2018-05-15T13:11:57.910Z,23.2
2018-05-15T13:28:48.069Z,23.5
2018-05-15T13:45:38.719Z,23.8
2018-05-15T13:55:44.921Z,24.5
2018-05-15T14:12:36.621Z,24.5
2018-05-15T14:29:26.905Z,23.8
2018-05-15T14:39:33.332Z,24.5
2018-05-15T14:46:17.757Z,24.2
2018-05-15T15:03:08.625Z,24.2
2018-05-15T15:19:59.364Z,24.2
2018-05-15T15:26:43.802Z,24.8
2018-05-15T15:43:35.220Z,25.1
2018-05-15T16:00:27.022Z,25.1
2018-05-15T16:13:56.470Z,25.1
2018-05-15T16:24:03.528Z,24.5
2018-05-15T16:37:32.504Z,23.8
2018-05-15T16:54:22.896Z,23.5
2018-05-15T17:04:29.243Z,24.2
2018-05-15T17:17:58.023Z,23.5
2018-05-15T17:24:42.355Z,24.2
2018-05-15T17:41:33.478Z,23.8
2018-05-15T17:58:24.047Z,23.5
2018-05-15T18:15:14.268Z,23.2
2018-05-15T18:32:03.944Z,22.6
2018-05-15T18:48:53.072Z,22.2
2018-05-15T19:05:41.876Z,21.9
2018-05-15T19:19:08.613Z,21.3
2018-05-15T19:35:56.695Z,21.3
2018-05-15T19:52:44.552Z,21.0
2018-05-15T20:09:36.309Z,20.6
2018-05-15T20:26:19.771Z,20.3
2018-05-15T20:43:06.948Z,20.0
2018-05-15T20:59:53.981Z,20.0
2018-05-15T21:16:40.970Z,20.0
2018-05-15T21:33:27.947Z,19.7
2018-05-15T21:50:14.338Z,19.4
2018-05-15T22:07:00.799Z,19.4
2018-05-15T22:23:47.027Z,19.0
2018-05-15T22:40:33.206Z,18.7
2018-05-15T22:57:18.839Z,18.4
2018-05-15T23:14:04.517Z,18.4
2018-05-15T23:30:50.082Z,18.4
2018-05-15T23:47:35.614Z,18.1
